createdAt,value
2022-09-12T00:01:20.663Z,97555.00
2022-09-12T00:03:49.684Z,97621.72
2022-09-12T00:06:22.830Z,97623.84
2022-09-12T00:08:55.117Z,97630.31
2022-09-12T00:11:24.105Z,97585.72
2022-09-12T00:13:52.320Z,97623.78
2022-09-12T00:16:22.788Z,97623.09
2022-09-12T00:18:51.520Z,97620.31
2022-09-12T00:21:20.123Z,97622.97
2022-09-12T00:23:48.990Z,97620.53
2022-09-12T00:26:19.643Z,97598.47
2022-09-12T00:28:48.720Z,97611.16
2022-09-12T00:31:18.877Z,97607.94
2022-09-12T00:33:47.931Z,97613.22
2022-09-12T00:36:18.383Z,97608.22
2022-09-12T00:38:47.664Z,97485.28
2022-09-12T00:41:21.533Z,97590.22
2022-09-12T00:43:51.087Z,97607.00
2022-09-12T00:46:30.259Z,97558.31
2022-09-12T00:49:05.463Z,97609.00
2022-09-12T00:51:35.798Z,97613.72
2022-09-12T00:54:11.942Z,97612.09
2022-09-12T00:56:44.695Z,97603.03
2022-09-12T00:59:19.010Z,97617.97
2022-09-12T01:01:50.798Z,97599.03
2022-09-12T01:04:21.359Z,97607.84
2022-09-12T01:06:51.208Z,97610.84
2022-09-12T01:09:22.013Z,97616.97
2022-09-12T01:11:53.187Z,97610.91
2022-09-12T01:14:22.134Z,97548.44
2022-09-12T01:16:51.936Z,97582.38
2022-09-12T01:19:58.761Z,97606.75
2022-09-12T01:22:55.149Z,97594.63
2022-09-12T01:25:32.527Z,97597.19
2022-09-12T01:28:32.631Z,97592.75
2022-09-12T01:31:08.016Z,97590.13
2022-09-12T01:33:51.193Z,97593.06
2022-09-12T01:36:36.069Z,97562.25
2022-09-12T01:39:06.775Z,97591.56
2022-09-12T01:41:46.133Z,97591.63
2022-09-12T01:44:23.197Z,97579.50
2022-09-12T01:46:57.834Z,97602.94
2022-09-12T01:49:29.870Z,97596.84
2022-09-12T01:52:02.200Z,97597.56
2022-09-12T01:54:38.008Z,97597.66
2022-09-12T01:57:14.173Z,97549.53
2022-09-12T01:59:46.762Z,97579.22
2022-09-12T02:02:19.424Z,97580.22
2022-09-12T02:04:54.003Z,97590.50
2022-09-12T02:07:27.555Z,97593.22
2022-09-12T02:10:00.761Z,97593.31
2022-09-12T02:12:36.264Z,97589.09
2022-09-12T02:15:10.085Z,97590.38
2022-09-12T02:17:43.762Z,97584.28
2022-09-12T02:20:31.124Z,97585.06
2022-09-12T02:23:08.437Z,97574.00
2022-09-12T02:25:43.171Z,97574.84
2022-09-12T02:28:15.340Z,97556.53
2022-09-12T02:30:50.943Z,97577.06
2022-09-12T02:33:27.810Z,97575.19
2022-09-12T02:36:05.078Z,97560.81
2022-09-12T02:38:41.295Z,97575.31
2022-09-12T02:41:09.516Z,97573.00
2022-09-12T02:43:38.916Z,97580.19
2022-09-12T02:46:12.585Z,97576.38
2022-09-12T02:48:44.923Z,97571.41
2022-09-12T02:51:14.105Z,97572.38
2022-09-12T02:53:43.367Z,97568.72
2022-09-12T02:56:18.442Z,97567.56
2022-09-12T02:58:47.570Z,97551.41
2022-09-12T03:01:31.234Z,97567.72
2022-09-12T03:04:22.528Z,97561.50
2022-09-12T03:07:01.094Z,97569.88
2022-09-12T03:09:38.586Z,97550.66
2022-09-12T03:12:19.946Z,97555.84
2022-09-12T03:15:07.476Z,97563.44
2022-09-12T03:17:48.526Z,97569.53
2022-09-12T03:20:30.157Z,97551.13
2022-09-12T03:23:04.348Z,97551.25
2022-09-12T03:25:37.465Z,97568.94
2022-09-12T03:28:09.955Z,97510.81
2022-09-12T03:30:42.911Z,97565.88
2022-09-12T03:33:13.163Z,97573.88
2022-09-12T03:35:43.799Z,97572.38
2022-09-12T03:38:12.049Z,97494.53
2022-09-12T03:40:40.469Z,97573.84
2022-09-12T03:43:10.642Z,97571.59
2022-09-12T03:45:40.022Z,97567.59
2022-09-12T03:48:08.294Z,97568.44
2022-09-12T03:50:36.406Z,97551.88
2022-09-12T03:53:06.030Z,97560.88
2022-09-12T03:55:34.180Z,97558.41
2022-09-12T03:58:02.569Z,97563.16
2022-09-12T04:00:30.822Z,97544.66
2022-09-12T04:02:59.084Z,97573.59
2022-09-12T04:05:27.962Z,97533.91
2022-09-12T04:07:56.547Z,97573.78
2022-09-12T04:10:26.241Z,97544.38
2022-09-12T04:12:54.835Z,97585.69
2022-09-12T04:15:22.993Z,97581.94
2022-09-12T04:17:51.181Z,97574.56
2022-09-12T04:20:19.565Z,97590.00
2022-09-12T04:22:47.817Z,97566.88
2022-09-12T04:25:16.153Z,97588.28
2022-09-12T04:27:45.710Z,97587.94
2022-09-12T04:30:14.646Z,97588.28
2022-09-12T04:32:42.810Z,97588.06
2022-09-12T04:35:12.496Z,97573.28
2022-09-12T04:37:40.898Z,97556.28
2022-09-12T04:40:10.220Z,97537.81
2022-09-12T04:42:38.430Z,97583.28
2022-09-12T04:45:09.365Z,97470.09
2022-09-12T04:47:37.567Z,97585.84
2022-09-12T04:50:06.655Z,97586.75
2022-09-12T04:52:34.876Z,97589.03
2022-09-12T04:55:03.022Z,97594.34
2022-09-12T04:57:31.268Z,97592.72
2022-09-12T05:00:02.754Z,97593.47
2022-09-12T05:02:36.083Z,97591.44
2022-09-12T05:05:04.467Z,97594.69
2022-09-12T05:07:32.677Z,97595.38
2022-09-12T05:10:01.223Z,97600.22
2022-09-12T05:12:29.577Z,97607.34
2022-09-12T05:14:58.223Z,97605.50
2022-09-12T05:17:26.448Z,97598.06
2022-09-12T05:19:55.999Z,97595.03
2022-09-12T05:22:24.153Z,97600.69
2022-09-12T05:24:52.381Z,97610.69
2022-09-12T05:27:20.638Z,97610.22
2022-09-12T05:29:48.881Z,97615.81
2022-09-12T05:32:16.969Z,97291.72
2022-09-12T05:34:45.448Z,97614.66
2022-09-12T05:37:15.089Z,97508.19
2022-09-12T05:39:44.759Z,97610.72
2022-09-12T05:42:13.016Z,97613.84
2022-09-12T05:44:41.158Z,97603.22
2022-09-12T05:47:12.969Z,97603.56
2022-09-12T05:49:41.781Z,97621.88
2022-09-12T05:52:09.873Z,97627.31
2022-09-12T05:54:39.528Z,97610.22
2022-09-12T05:57:07.608Z,97610.59
2022-09-12T05:59:36.021Z,97617.06
2022-09-12T06:02:04.464Z,97626.72
2022-09-12T06:04:32.648Z,97616.06
2022-09-12T06:07:00.750Z,97623.69
2022-09-12T06:09:29.034Z,97627.25
2022-09-12T06:11:58.842Z,97612.06
2022-09-12T06:14:27.158Z,97619.38
2022-09-12T06:16:55.439Z,97623.41
2022-09-12T06:19:25.205Z,97618.22
2022-09-12T06:21:53.552Z,97627.13
2022-09-12T06:24:23.022Z,97626.22
2022-09-12T06:26:52.847Z,97594.97
2022-09-12T06:29:22.486Z,97623.66
2022-09-12T06:31:50.576Z,97625.06
2022-09-12T06:34:19.685Z,97627.00
2022-09-12T06:36:50.328Z,97626.25
2022-09-12T06:39:20.710Z,97631.88
2022-09-12T06:41:49.736Z,97631.22
2022-09-12T06:44:20.310Z,97629.41
2022-09-12T06:46:50.346Z,97608.91
2022-09-12T06:49:19.018Z,97539.09
2022-09-12T06:51:47.289Z,97612.25
2022-09-12T06:54:17.141Z,97612.00
2022-09-12T06:56:45.945Z,97607.63
2022-09-12T06:59:14.335Z,97599.47
2022-09-12T07:01:43.052Z,97614.81
2022-09-12T07:04:12.827Z,97605.31
2022-09-12T07:06:43.046Z,97620.34
2022-09-12T07:09:13.148Z,97612.41
2022-09-12T07:11:43.042Z,97608.91
2022-09-12T07:14:13.136Z,97619.91
2022-09-12T07:16:41.740Z,97529.75
2022-09-12T07:19:10.944Z,97623.59
2022-09-12T07:21:41.051Z,97625.47
2022-09-12T07:24:11.040Z,97625.56
2022-09-12T07:26:40.360Z,97625.13
2022-09-12T07:32:03.374Z,97606.59
2022-09-12T07:34:31.645Z,97612.03
2022-09-12T07:37:01.193Z,97612.09
2022-09-12T07:39:29.293Z,97618.00
2022-09-12T07:41:57.883Z,97610.47
2022-09-12T07:44:27.092Z,97614.00
2022-09-12T07:46:55.353Z,97621.47
2022-09-12T07:49:23.603Z,97617.41
2022-09-12T07:51:52.043Z,97609.16
2022-09-12T07:54:21.798Z,97620.16
2022-09-12T07:56:50.030Z,97597.06
2022-09-12T07:59:35.366Z,97626.53
2022-09-12T08:02:06.952Z,97599.81
2022-09-12T08:04:36.597Z,97614.13
2022-09-12T08:07:05.108Z,97621.19
2022-09-12T08:09:34.651Z,97603.13
2022-09-12T08:12:03.558Z,97626.91
2022-09-12T08:14:32.127Z,97610.00
2022-09-12T08:17:00.306Z,97614.66
2022-09-12T08:19:28.539Z,97601.59
2022-09-12T08:21:56.686Z,97613.69
2022-09-12T08:24:25.217Z,97612.78
2022-09-12T08:26:54.726Z,97607.63
2022-09-12T08:29:22.853Z,97622.56
2022-09-12T08:31:53.982Z,97591.75
2022-09-12T08:34:26.293Z,97605.09
2022-09-12T08:36:55.425Z,97601.03
2022-09-12T08:39:24.758Z,97598.03
2022-09-12T08:42:03.219Z,97608.66
2022-09-12T08:45:00.501Z,97595.81
2022-09-12T08:47:32.482Z,97605.38
2022-09-12T08:50:18.685Z,97608.09
2022-09-12T08:52:54.862Z,97608.22
2022-09-12T08:57:57.649Z,97588.88
2022-09-12T09:00:29.443Z,97599.84
2022-09-12T09:03:30.281Z,97604.41
2022-09-12T09:06:08.409Z,97604.44
2022-09-12T09:08:57.198Z,97603.00
2022-09-12T09:11:40.123Z,97596.81
2022-09-12T09:14:46.758Z,97561.91
2022-09-12T09:17:21.648Z,97600.22
2022-09-12T09:19:56.637Z,97535.41
2022-09-12T09:22:33.820Z,97594.47
2022-09-12T09:25:06.581Z,97595.59
2022-09-12T09:27:41.205Z,97587.47
2022-09-12T09:30:16.783Z,97341.97
2022-09-12T09:32:48.819Z,97549.97
2022-09-12T09:35:20.716Z,97581.06
2022-09-12T09:38:02.763Z,97490.63
2022-09-12T09:40:40.803Z,97569.75
2022-09-12T09:43:19.833Z,97545.31
2022-09-12T09:45:49.774Z,97497.59
2022-09-12T09:48:20.953Z,97576.91
2022-09-12T09:50:50.942Z,97567.41
2022-09-12T09:53:35.248Z,97572.44
2022-09-12T09:56:07.342Z,97557.84
2022-09-12T09:58:37.388Z,97556.75
2022-09-12T10:01:13.604Z,97559.94
2022-09-12T10:03:42.305Z,97552.16
2022-09-12T10:06:26.668Z,97558.34
2022-09-12T10:09:19.090Z,97559.53
2022-09-12T10:11:48.238Z,97516.44
2022-09-12T10:14:40.586Z,97527.34
2022-09-12T10:17:33.942Z,97543.38
2022-09-12T10:20:21.529Z,97535.63
2022-09-12T10:22:51.246Z,97534.84
2022-09-12T10:25:20.566Z,97530.22
2022-09-12T10:27:55.440Z,97528.84
2022-09-12T10:30:25.937Z,97527.84
2022-09-12T10:32:59.158Z,97522.84
2022-09-12T10:35:33.608Z,97282.31
2022-09-12T10:38:05.215Z,97523.19
2022-09-12T10:40:39.001Z,97534.50
2022-09-12T10:43:18.868Z,97525.50
2022-09-12T10:45:47.314Z,97516.63
2022-09-12T10:48:29.771Z,97522.00
2022-09-12T10:50:58.785Z,97512.41
2022-09-12T10:53:32.390Z,97510.06
2022-09-12T10:56:09.328Z,97521.84
2022-09-12T10:58:49.957Z,97515.88
2022-09-12T11:01:30.901Z,97511.13
2022-09-12T11:04:20.416Z,97480.53
2022-09-12T11:07:00.123Z,97505.19
2022-09-12T11:09:36.295Z,97512.75
2022-09-12T11:12:14.509Z,97502.75
2022-09-12T11:14:57.591Z,97431.50
2022-09-12T11:17:37.032Z,97490.72
2022-09-12T11:20:22.941Z,97499.63
2022-09-12T11:23:23.891Z,97490.69
2022-09-12T11:26:01.140Z,97496.41
2022-09-12T11:28:49.296Z,97461.28
2022-09-12T11:31:33.088Z,97490.94
2022-09-12T11:34:04.153Z,97483.75
2022-09-12T11:36:39.486Z,97451.06
2022-09-12T11:39:15.669Z,97481.84
2022-09-12T11:41:48.108Z,97421.63
2022-09-12T11:44:24.519Z,97485.81
2022-09-12T11:46:53.305Z,97414.53
2022-09-12T11:49:34.821Z,97484.78
2022-09-12T11:52:12.303Z,97476.66
2022-09-12T11:54:52.846Z,97479.84
2022-09-12T11:57:30.263Z,97481.25
2022-09-12T12:00:03.717Z,97473.63
2022-09-12T12:02:38.020Z,97476.59
2022-09-12T12:05:21.550Z,97472.03
2022-09-12T12:07:54.974Z,97469.78
2022-09-12T12:10:27.275Z,97472.94
2022-09-12T12:12:57.035Z,97450.88
2022-09-12T12:15:27.172Z,97466.38
2022-09-12T12:18:08.089Z,97469.88
2022-09-12T12:20:37.287Z,97462.56
2022-09-12T12:23:06.876Z,97468.25
2022-09-12T12:25:51.614Z,97445.84
2022-09-12T12:28:52.979Z,97466.16
2022-09-12T12:31:21.254Z,97474.19
2022-09-12T12:34:14.907Z,97467.16
2022-09-12T12:36:44.026Z,97456.91
2022-09-12T12:40:04.160Z,97466.56
2022-09-12T12:43:29.502Z,97441.09
2022-09-12T12:46:09.920Z,97440.31
2022-09-12T12:49:07.206Z,97439.72
2022-09-12T12:51:57.585Z,97438.00
2022-09-12T12:54:35.499Z,97446.69
2022-09-12T12:57:19.582Z,97426.09
2022-09-12T12:59:53.129Z,97430.66
2022-09-12T13:02:28.603Z,97425.00
2022-09-12T13:04:58.382Z,97438.13
2022-09-12T13:07:31.599Z,97431.28
2022-09-12T13:10:01.455Z,97421.72
2022-09-12T13:12:34.238Z,97440.88
2022-09-12T13:15:25.593Z,97437.66
2022-09-12T13:17:59.902Z,97429.66
2022-09-12T13:20:31.641Z,97420.25
2022-09-12T13:23:00.679Z,97382.75
2022-09-12T13:25:31.650Z,97415.84
2022-09-12T13:28:06.417Z,97412.81
2022-09-12T13:30:37.593Z,97412.28
2022-09-12T13:33:14.409Z,97404.13
2022-09-12T13:35:55.990Z,97398.00
2022-09-12T13:38:36.245Z,97370.59
2022-09-12T13:41:26.994Z,97383.97
2022-09-12T13:43:55.627Z,97325.97
2022-09-12T13:46:32.211Z,97383.28
2022-09-12T13:49:08.033Z,97391.22
2022-09-12T13:51:36.493Z,97385.66
2022-09-12T13:54:06.766Z,97385.69
2022-09-12T13:56:35.082Z,97379.72
2022-09-12T13:59:04.129Z,97280.13
2022-09-12T14:01:40.758Z,97357.31
2022-09-12T14:04:45.796Z,97377.81
2022-09-12T14:07:17.476Z,97354.03
2022-09-12T14:09:47.634Z,97373.22
2022-09-12T14:12:25.483Z,97373.25
2022-09-12T14:14:54.095Z,97362.19
2022-09-12T14:17:31.761Z,97358.84
2022-09-12T14:20:04.003Z,97360.00
2022-09-12T14:22:32.673Z,97357.94
2022-09-12T14:25:01.020Z,97351.78
2022-09-12T14:27:30.539Z,97349.25
2022-09-12T14:30:02.813Z,97347.19
2022-09-12T14:32:30.793Z,97342.06
2022-09-12T14:35:19.146Z,97347.81
2022-09-12T14:37:49.118Z,97340.72
2022-09-12T14:40:19.158Z,97343.09
2022-09-12T14:42:49.675Z,97339.91
2022-09-12T14:45:19.547Z,97327.75
2022-09-12T14:47:50.460Z,97335.69
2022-09-12T14:50:22.825Z,97321.69
2022-09-12T14:53:04.881Z,97316.66
2022-09-12T14:55:33.820Z,97316.59
2022-09-12T14:58:23.612Z,97274.56
2022-09-12T15:00:55.410Z,97316.59
2022-09-12T15:03:29.577Z,97313.28
2022-09-12T15:05:59.405Z,97309.06
2022-09-12T15:08:27.643Z,97311.16
2022-09-12T15:10:55.935Z,97312.63
2022-09-12T15:13:25.939Z,97312.22
2022-09-12T15:15:54.494Z,97304.03
2022-09-12T15:18:23.633Z,97312.63
2022-09-12T15:20:52.956Z,97308.66
2022-09-12T15:23:28.602Z,97304.44
2022-09-12T15:25:56.601Z,97306.78
2022-09-12T15:28:25.253Z,97306.72
2022-09-12T15:30:54.407Z,97314.53
2022-09-12T15:33:24.366Z,97306.53
2022-09-12T15:35:52.989Z,97311.97
2022-09-12T15:38:26.190Z,97300.44
2022-09-12T15:40:56.638Z,97308.59
2022-09-12T15:43:26.350Z,97314.13
2022-09-12T15:45:54.612Z,97305.53
2022-09-12T15:48:22.650Z,97312.59
2022-09-12T15:50:50.752Z,97307.72
2022-09-12T15:53:18.619Z,97307.28
2022-09-12T15:55:46.599Z,97307.41
2022-09-12T15:58:15.956Z,97304.81
2022-09-12T16:00:43.805Z,97301.03
2022-09-12T16:03:22.831Z,97311.59
2022-09-12T16:05:50.944Z,97305.56
2022-09-12T16:08:18.837Z,97308.91
2022-09-12T16:10:48.973Z,97326.19
2022-09-12T16:13:18.648Z,97323.22
2022-09-12T16:15:47.319Z,97321.31
2022-09-12T16:18:15.814Z,97314.22
2022-09-12T16:20:43.975Z,97287.09
2022-09-12T16:23:13.626Z,97326.06
2022-09-12T16:25:41.929Z,97313.44
2022-09-12T16:28:10.396Z,97246.34
2022-09-12T16:30:39.937Z,97334.28
2022-09-12T16:33:08.715Z,97314.50
2022-09-12T16:35:37.051Z,97213.53
2022-09-12T16:38:05.248Z,97332.47
2022-09-12T16:40:33.439Z,97322.72
2022-09-12T16:43:01.956Z,97320.94
2022-09-12T16:45:30.178Z,97349.88
2022-09-12T16:47:59.817Z,97350.72
2022-09-12T16:50:29.356Z,97350.38
2022-09-12T16:52:57.677Z,97344.03
2022-09-12T16:55:25.899Z,97332.72
2022-09-12T16:57:54.291Z,97349.47
2022-09-12T17:00:22.678Z,97342.75
2022-09-12T17:02:51.150Z,97347.59
2022-09-12T17:05:20.851Z,97348.41
2022-09-12T17:07:49.098Z,97326.16
2022-09-12T17:10:17.366Z,97359.34
2022-09-12T17:12:45.858Z,97339.22
2022-09-12T17:15:14.049Z,97368.78
2022-09-12T17:17:45.996Z,97355.88
2022-09-12T17:20:14.405Z,97369.91
2022-09-12T17:22:44.157Z,97374.81
2022-09-12T17:25:12.694Z,97382.13
2022-09-12T17:27:40.957Z,97371.53
2022-09-12T17:30:10.782Z,97378.03
2022-09-12T17:32:39.188Z,97387.84
2022-09-12T17:35:08.622Z,97384.66
2022-09-12T17:37:37.277Z,97380.41
2022-09-12T17:40:08.402Z,97369.56
2022-09-12T17:42:36.970Z,97384.25
2022-09-12T17:45:06.602Z,97403.06
2022-09-12T17:47:35.073Z,97378.06
2022-09-12T17:50:29.953Z,97407.97
2022-09-12T17:52:51.589Z,97398.81
2022-09-12T17:55:21.286Z,97412.13
2022-09-12T17:57:49.609Z,97420.63
2022-09-12T18:00:18.775Z,97426.16
2022-09-12T18:02:46.984Z,97422.03
2022-09-12T18:05:15.382Z,97402.09
2022-09-12T18:07:44.341Z,97403.66
2022-09-12T18:10:12.798Z,97443.59
2022-09-12T18:12:43.647Z,97445.53
2022-09-12T18:15:12.704Z,97441.78
2022-09-12T18:17:41.302Z,97440.88
2022-09-12T18:20:10.583Z,97451.59
2022-09-12T18:22:39.062Z,97443.19
2022-09-12T18:25:08.167Z,97345.00
2022-09-12T18:27:36.678Z,97456.34
2022-09-12T18:30:21.218Z,97417.97
2022-09-12T18:32:51.560Z,97437.25
2022-09-12T18:35:20.298Z,97439.13
2022-09-12T18:37:48.743Z,97468.22
2022-09-12T18:40:17.482Z,97450.19
2022-09-12T18:42:46.009Z,97473.63
2022-09-12T18:45:15.756Z,97471.50
2022-09-12T18:47:44.290Z,97461.94
2022-09-12T18:50:12.862Z,97375.06
2022-09-12T18:52:41.444Z,97466.31
2022-09-12T18:55:11.023Z,97489.47
2022-09-12T18:57:41.746Z,97491.47
2022-09-12T19:00:12.738Z,97475.06
2022-09-12T19:02:43.027Z,97488.34
2022-09-12T19:05:13.180Z,97486.66
2022-09-12T19:07:41.481Z,97425.84
2022-09-12T19:10:10.538Z,97488.00
2022-09-12T19:12:39.032Z,97481.38
2022-09-12T19:15:10.224Z,97485.25
2022-09-12T19:17:38.714Z,97485.94
2022-09-12T19:20:09.240Z,97486.31
2022-09-12T19:22:37.801Z,97463.63
2022-09-12T19:25:06.864Z,97486.25
2022-09-12T19:27:35.287Z,97478.03
2022-09-12T19:30:03.497Z,97483.22
2022-09-12T19:32:32.396Z,97485.03
2022-09-12T19:35:00.949Z,97485.97
2022-09-12T19:37:32.655Z,97486.63
2022-09-12T19:40:01.224Z,97484.91
2022-09-12T19:42:29.531Z,97488.72
2022-09-12T19:44:58.121Z,97489.94
2022-09-12T19:47:26.715Z,97486.75
2022-09-12T19:49:55.435Z,97476.69
2022-09-12T19:52:24.147Z,97480.13
2022-09-12T19:54:53.856Z,97454.03
2022-09-12T19:57:22.239Z,97469.78
2022-09-12T19:59:50.458Z,97493.75
2022-09-12T20:02:18.806Z,97499.22
2022-09-12T20:04:47.542Z,97499.59
2022-09-12T20:07:15.799Z,97499.50
2022-09-12T20:09:44.107Z,97488.50
2022-09-12T20:12:14.617Z,97498.38
2022-09-12T20:14:43.037Z,97489.53
2022-09-12T20:17:11.421Z,97503.84
2022-09-12T20:19:39.555Z,97500.97
2022-09-12T20:22:07.947Z,97468.44
2022-09-12T20:24:36.119Z,97497.06
2022-09-12T20:27:04.537Z,97497.34
2022-09-12T20:29:34.118Z,97496.47
2022-09-12T20:32:02.196Z,97499.06
2022-09-12T20:34:30.397Z,97495.97
2022-09-12T20:36:58.529Z,97502.56
2022-09-12T20:39:27.100Z,97505.31
2022-09-12T20:41:55.330Z,97504.53
2022-09-12T20:44:23.582Z,97441.72
2022-09-12T20:46:53.689Z,97478.94
2022-09-12T20:49:23.541Z,97478.44
2022-09-12T20:51:51.806Z,97507.63
2022-09-12T20:54:20.878Z,97509.06
2022-09-12T20:56:49.271Z,97514.31
2022-09-12T20:59:17.466Z,97498.31
2022-09-12T21:01:45.675Z,97496.72
2022-09-12T21:04:15.530Z,97506.97
2022-09-12T21:06:43.754Z,97520.72
2022-09-12T21:09:11.957Z,97523.72
2022-09-12T21:11:40.063Z,97516.09
2022-09-12T21:14:08.245Z,97515.06
2022-09-12T21:16:38.745Z,97520.47
2022-09-12T21:19:07.870Z,97507.50
2022-09-12T21:21:38.036Z,97515.34
2022-09-12T21:24:06.660Z,97517.31
2022-09-12T21:26:34.912Z,97516.13
2022-09-12T21:29:03.175Z,97518.50
2022-09-12T21:31:31.329Z,97500.84
2022-09-12T21:33:59.507Z,97519.47
2022-09-12T21:36:27.690Z,97516.44
2022-09-12T21:39:00.405Z,97518.72
2022-09-12T21:41:28.898Z,97494.78
2022-09-12T21:43:57.078Z,97516.34
2022-09-12T21:46:25.620Z,97506.84
2022-09-12T21:48:53.912Z,97509.28
2022-09-12T21:51:22.093Z,97499.84
2022-09-12T21:53:50.275Z,97500.78
2022-09-12T21:56:19.783Z,97493.59
2022-09-12T21:58:48.018Z,97514.47
2022-09-12T22:01:16.315Z,97482.63
2022-09-12T22:03:45.070Z,97523.03
2022-09-12T22:06:14.326Z,97499.97
2022-09-12T22:08:42.506Z,97509.53
2022-09-12T22:11:11.514Z,97518.59
2022-09-12T22:13:43.939Z,97506.25
2022-09-12T22:16:12.859Z,97515.47
2022-09-12T22:18:41.388Z,97522.81
2022-09-12T22:21:13.235Z,97511.63
2022-09-12T22:23:59.173Z,97458.78
2022-09-12T22:26:28.367Z,97513.22
2022-09-12T22:28:57.874Z,97510.50
2022-09-12T22:31:27.109Z,97518.28
2022-09-12T22:33:57.174Z,97491.19
2022-09-12T22:36:30.498Z,97505.00
2022-09-12T22:38:59.552Z,97509.91
2022-09-12T22:41:28.597Z,97463.56
2022-09-12T22:43:58.689Z,97514.38
2022-09-12T22:46:27.686Z,97510.34
2022-09-12T22:48:56.163Z,97502.97
2022-09-12T22:51:24.357Z,97483.28
2022-09-12T22:53:53.089Z,97494.47
2022-09-12T22:56:21.376Z,97515.91
2022-09-12T22:58:50.067Z,97494.53
2022-09-12T23:01:20.340Z,97497.19
2022-09-12T23:03:48.602Z,97477.06
2022-09-12T23:06:17.416Z,97512.28
2022-09-12T23:08:45.622Z,97505.91
2022-09-12T23:11:15.632Z,97489.88
2022-09-12T23:13:45.743Z,97511.50
2022-09-12T23:16:17.501Z,97372.75
2022-09-12T23:18:47.482Z,97507.06
2022-09-12T23:21:18.771Z,97492.59
2022-09-12T23:23:47.377Z,97499.81
2022-09-12T23:26:18.678Z,97462.00
2022-09-12T23:28:51.742Z,97488.41
2022-09-12T23:31:20.571Z,97497.44
2022-09-12T23:33:51.172Z,97489.56
2022-09-12T23:36:19.772Z,97485.47
2022-09-12T23:38:48.444Z,97481.13
2022-09-12T23:41:18.186Z,97486.16
2022-09-12T23:43:47.322Z,97469.94
2022-09-12T23:46:17.193Z,97474.38
2022-09-12T23:48:46.163Z,97476.16
2022-09-12T23:51:16.021Z,97474.69
2022-09-12T23:53:44.300Z,97474.09
2022-09-12T23:56:12.654Z,97482.28
2022-09-12T23:58:40.847Z,97376.59
